Muflao — CUGV3 — position and weather

sailwx.info

Track history (hours):
 
Tides and Currents Weather Stations Pressure Air Temp Water Temp Dewpoint Dewpoint Depression Visibility Wind Speed Wind Dir Waves Ship Positions

Muflao

Last reported at 2017-Nov-16 17:14 UTC. Time now 2017-Nov-22 09:12 UTC.
Position N 39°11' W 009°39'.

Length 16 m.

Type: Fishing. MMSI: 263401790.

Date/timePositionNaut miles runAvg speedWind from/ knotsBaromVisibWave heightAir tempDewpointWater temp
2017-Nov-16 17:14N 39°11' W 009°39'3 7.7
2017-Nov-16 16:48N 39°08' W 009°41'2 6.4
2017-Nov-16 16:29N 39°06' W 009°43'0 1.0
2017-Nov-16 15:59N 39°06' W 009°43'1 1.1
2017-Nov-16 15:30N 39°05' W 009°43'1 1.1
2017-Nov-16 15:01N 39°05' W 009°44'1 1.2
2017-Nov-16 14:30N 39°06' W 009°43'1 2.5
2017-Nov-16 13:58N 39°07' W 009°43'1 1.2
2017-Nov-16 13:29N 39°07' W 009°43'1 1.0
2017-Nov-16 12:59N 39°06' W 009°44'1 1.1
2017-Nov-16 12:30N 39°06' W 009°44'2 3.3
2017-Nov-16 11:59N 39°04' W 009°44'3 6.2
2017-Nov-16 11:30N 39°01' W 009°45'1 1.0
2017-Nov-16 10:56N 39°02' W 009°45'0 1.0
2017-Nov-16 10:29N 39°02' W 009°45'0 0.6
2017-Nov-16 09:55N 39°03' W 009°45'2 3.7
2017-Nov-16 09:27N 39°04' W 009°45'1 1.1
2017-Nov-16 08:58N 39°05' W 009°45'0 0.6
2017-Nov-16 08:30N 39°05' W 009°45'0 0.9
2017-Nov-16 08:00N 39°06' W 009°45'1 2.4
2017-Nov-16 07:30N 39°04' W 009°45'1 1.2
2017-Nov-16 07:00N 39°05' W 009°45'2 3.1
2017-Nov-16 06:31N 39°06' W 009°43'1 2.2
2017-Nov-16 06:00N 39°06' W 009°44'3 5.4
2017-Nov-16 05:30N 39°03' W 009°45'2 4.1
2017-Nov-16 05:00N 39°01' W 009°45'1 2.9
2017-Nov-16 04:30N 39°03' W 009°45'1 2.8
2017-Nov-16 04:01N 39°01' W 009°45'1 2.5
2017-Nov-16 03:30N 39°02' W 009°44'0 0.3
2017-Nov-16 02:58N 39°03' W 009°44'0 0.3
2017-Nov-16 02:24N 39°03' W 009°44'0 0.4
2017-Nov-16 01:56N 39°03' W 009°44'0 0.5
2017-Nov-16 01:25N 39°02' W 009°45'0 0.4
2017-Nov-16 01:00N 39°02' W 009°45'0 0.5
2017-Nov-16 00:31N 39°02' W 009°45'0 0.5
2017-Nov-16 00:01N 39°02' W 009°45'0 0.5
2017-Nov-15 23:31N 39°02' W 009°45'0 0.5
2017-Nov-15 23:01N 39°01' W 009°45'0 0.3
2017-Nov-15 22:31N 39°01' W 009°45'0 0.4
2017-Nov-15 22:01N 39°01' W 009°45'0 0.3
2017-Nov-15 21:30N 39°02' W 009°44'0 0.2
2017-Nov-15 20:56N 39°02' W 009°45'0 0.3
2017-Nov-15 20:30N 39°02' W 009°45'0 0.3
2017-Nov-15 20:00N 39°02' W 009°45'0 0.3
2017-Nov-15 19:30N 39°02' W 009°45'0 0.3
2017-Nov-15 18:55N 39°02' W 009°45'0 0.3
2017-Nov-15 18:30N 39°02' W 009°45'1 2.7
2017-Nov-15 18:00N 39°01' W 009°46'4 7.3
2017-Nov-15 17:30N 38°57' W 009°46'4 7.3
2017-Nov-15 16:58N 38°53' W 009°47'4 6.6
2017-Nov-15 16:25N 38°50' W 009°48'0 0.4
2017-Nov-15 15:55N 38°50' W 009°48'0 1.1
2017-Nov-15 15:31N 38°50' W 009°48'1 1.1
2017-Nov-15 14:57N 38°51' W 009°48'2 4.9
2017-Nov-15 14:27N 38°50' W 009°45'1 2.6
2017-Nov-15 14:00N 38°50' W 009°43'1 1.2
2017-Nov-15 13:31N 38°50' W 009°44'1 1.2
2017-Nov-15 12:59N 38°51' W 009°44'0 0.4
2017-Nov-15 12:30N 38°51' W 009°44'2 0.6
2017-Nov-15 09:20N 38°49' W 009°46'0 1.1
2017-Nov-15 09:00N 38°50' W 009°46'1 0.9
2017-Nov-15 08:25N 38°50' W 009°46'1 1.2
2017-Nov-15 07:54N 38°50' W 009°45'1 3.2
2017-Nov-15 07:31N 38°49' W 009°44'0 0.4
2017-Nov-15 07:00N 38°49' W 009°44'1 1.6
2017-Nov-15 06:30N 38°50' W 009°44'2 3.7
2017-Nov-15 06:00N 38°49' W 009°46'1 1.9
2017-Nov-15 05:14N 38°50' W 009°48'1 6.6
2017-Nov-15 05:00N 38°51' W 009°48'2 3.8
2017-Nov-15 04:31N 38°49' W 009°47'0 0.5
2017-Nov-15 04:00N 38°49' W 009°47'0 0.8
2017-Nov-15 03:29N 38°50' W 009°47'0 0.7
2017-Nov-15 03:00N 38°50' W 009°46'0 0.7
2017-Nov-15 02:28N 38°50' W 009°46'0 0.7
2017-Nov-15 02:01N 38°51' W 009°46'1 0.5
2017-Nov-14 23:53N 38°52' W 009°47'0 0.4
2017-Nov-14 23:30N 38°52' W 009°47'0 0.3
2017-Nov-14 22:57N 38°52' W 009°47'0 0.3
2017-Nov-14 22:28N 38°52' W 009°47'0 0.3
2017-Nov-14 22:00N 38°52' W 009°48'0 0.2
2017-Nov-14 21:30N 38°52' W 009°48'0 0.2
2017-Nov-14 21:00N 38°52' W 009°48'0 0.3
2017-Nov-14 20:30N 38°52' W 009°48'0 0.4
2017-Nov-14 19:55N 38°53' W 009°48'0 0.5
2017-Nov-14 19:30N 38°53' W 009°47'1 1.1
2017-Nov-14 19:00N 38°53' W 009°48'0 0.6
2017-Nov-14 18:26N 38°53' W 009°48'0 0.9
2017-Nov-14 17:53N 38°54' W 009°48'3 6.5
2017-Nov-14 17:28N 38°52' W 009°51'1 1.7
2017-Nov-14 17:00N 38°53' W 009°50'1 1.0
2017-Nov-14 16:28N 38°53' W 009°50'0 0.4
2017-Nov-14 15:55N 38°53' W 009°50'0 0.9
2017-Nov-14 15:27N 38°53' W 009°50'4 8.0
2017-Nov-14 15:01N 38°50' W 009°49'0 0.3
2017-Nov-14 14:31N 38°50' W 009°50'6 0.6
2017-Nov-14 04:10N 38°56' W 009°49'1 5.8
2017-Nov-14 03:59N 38°57' W 009°49'4 7.6
2017-Nov-14 03:30N 39°00' W 009°47'4 7.8
2017-Nov-14 02:59N 39°03' W 009°43'4 7.7
2017-Nov-14 02:30N 39°06' W 009°40'4 8.1
2017-Nov-14 02:01N 39°09' W 009°36'5 8.1
2017-Nov-14 01:23N 39°12' W 009°32'  
Track history (hours):
 
Tides and Currents Weather Stations Pressure Air Temp Water Temp Dewpoint Dewpoint Depression Visibility Wind Speed Wind Dir Waves Ship Positions

Muflao

Last reported at 2017-Nov-16 17:14 UTC. Time now 2017-Nov-22 09:12 UTC.
Position N 39°11' W 009°39'.

Length 16 m.

Type: Fishing. MMSI: 263401790.

Date/timePositionNaut miles runAvg speedWind from/ knotsBaromVisibWave heightAir tempDewpointWater temp
2017-Nov-16 17:14N 39°11' W 009°39'3 7.7
2017-Nov-16 16:48N 39°08' W 009°41'2 6.4
2017-Nov-16 16:29N 39°06' W 009°43'0 1.0
2017-Nov-16 15:59N 39°06' W 009°43'1 1.1
2017-Nov-16 15:30N 39°05' W 009°43'1 1.1
2017-Nov-16 15:01N 39°05' W 009°44'1 1.2
2017-Nov-16 14:30N 39°06' W 009°43'1 2.5
2017-Nov-16 13:58N 39°07' W 009°43'1 1.2
2017-Nov-16 13:29N 39°07' W 009°43'1 1.0
2017-Nov-16 12:59N 39°06' W 009°44'1 1.1
2017-Nov-16 12:30N 39°06' W 009°44'2 3.3
2017-Nov-16 11:59N 39°04' W 009°44'3 6.2
2017-Nov-16 11:30N 39°01' W 009°45'1 1.0
2017-Nov-16 10:56N 39°02' W 009°45'0 1.0
2017-Nov-16 10:29N 39°02' W 009°45'0 0.6
2017-Nov-16 09:55N 39°03' W 009°45'2 3.7
2017-Nov-16 09:27N 39°04' W 009°45'1 1.1
2017-Nov-16 08:58N 39°05' W 009°45'0 0.6
2017-Nov-16 08:30N 39°05' W 009°45'0 0.9
2017-Nov-16 08:00N 39°06' W 009°45'1 2.4
2017-Nov-16 07:30N 39°04' W 009°45'1 1.2
2017-Nov-16 07:00N 39°05' W 009°45'2 3.1
2017-Nov-16 06:31N 39°06' W 009°43'1 2.2
2017-Nov-16 06:00N 39°06' W 009°44'3 5.4
2017-Nov-16 05:30N 39°03' W 009°45'2 4.1
2017-Nov-16 05:00N 39°01' W 009°45'1 2.9
2017-Nov-16 04:30N 39°03' W 009°45'1 2.8
2017-Nov-16 04:01N 39°01' W 009°45'1 2.5
2017-Nov-16 03:30N 39°02' W 009°44'0 0.3
2017-Nov-16 02:58N 39°03' W 009°44'0 0.3
2017-Nov-16 02:24N 39°03' W 009°44'0 0.4
2017-Nov-16 01:56N 39°03' W 009°44'0 0.5
2017-Nov-16 01:25N 39°02' W 009°45'0 0.4
2017-Nov-16 01:00N 39°02' W 009°45'0 0.5
2017-Nov-16 00:31N 39°02' W 009°45'0 0.5
2017-Nov-16 00:01N 39°02' W 009°45'0 0.5
2017-Nov-15 23:31N 39°02' W 009°45'0 0.5
2017-Nov-15 23:01N 39°01' W 009°45'0 0.3
2017-Nov-15 22:31N 39°01' W 009°45'0 0.4
2017-Nov-15 22:01N 39°01' W 009°45'0 0.3
2017-Nov-15 21:30N 39°02' W 009°44'0 0.2
2017-Nov-15 20:56N 39°02' W 009°45'0 0.3
2017-Nov-15 20:30N 39°02' W 009°45'0 0.3
2017-Nov-15 20:00N 39°02' W 009°45'0 0.3
2017-Nov-15 19:30N 39°02' W 009°45'0 0.3
2017-Nov-15 18:55N 39°02' W 009°45'0 0.3
2017-Nov-15 18:30N 39°02' W 009°45'1 2.7
2017-Nov-15 18:00N 39°01' W 009°46'4 7.3
2017-Nov-15 17:30N 38°57' W 009°46'4 7.3
2017-Nov-15 16:58N 38°53' W 009°47'4 6.6
2017-Nov-15 16:25N 38°50' W 009°48'0 0.4
2017-Nov-15 15:55N 38°50' W 009°48'0 1.1
2017-Nov-15 15:31N 38°50' W 009°48'1 1.1
2017-Nov-15 14:57N 38°51' W 009°48'2 4.9
2017-Nov-15 14:27N 38°50' W 009°45'1 2.6
2017-Nov-15 14:00N 38°50' W 009°43'1 1.2
2017-Nov-15 13:31N 38°50' W 009°44'1 1.2
2017-Nov-15 12:59N 38°51' W 009°44'0 0.4
2017-Nov-15 12:30N 38°51' W 009°44'2 0.6
2017-Nov-15 09:20N 38°49' W 009°46'0 1.1
2017-Nov-15 09:00N 38°50' W 009°46'1 0.9
2017-Nov-15 08:25N 38°50' W 009°46'1 1.2
2017-Nov-15 07:54N 38°50' W 009°45'1 3.2
2017-Nov-15 07:31N 38°49' W 009°44'0 0.4
2017-Nov-15 07:00N 38°49' W 009°44'1 1.6
2017-Nov-15 06:30N 38°50' W 009°44'2 3.7
2017-Nov-15 06:00N 38°49' W 009°46'1 1.9
2017-Nov-15 05:14N 38°50' W 009°48'1 6.6
2017-Nov-15 05:00N 38°51' W 009°48'2 3.8
2017-Nov-15 04:31N 38°49' W 009°47'0 0.5
2017-Nov-15 04:00N 38°49' W 009°47'0 0.8
2017-Nov-15 03:29N 38°50' W 009°47'0 0.7
2017-Nov-15 03:00N 38°50' W 009°46'0 0.7
2017-Nov-15 02:28N 38°50' W 009°46'0 0.7
2017-Nov-15 02:01N 38°51' W 009°46'1 0.5
2017-Nov-14 23:53N 38°52' W 009°47'0 0.4
2017-Nov-14 23:30N 38°52' W 009°47'0 0.3
2017-Nov-14 22:57N 38°52' W 009°47'0 0.3
2017-Nov-14 22:28N 38°52' W 009°47'0 0.3
2017-Nov-14 22:00N 38°52' W 009°48'0 0.2
2017-Nov-14 21:30N 38°52' W 009°48'0 0.2
2017-Nov-14 21:00N 38°52' W 009°48'0 0.3
2017-Nov-14 20:30N 38°52' W 009°48'0 0.4
2017-Nov-14 19:55N 38°53' W 009°48'0 0.5
2017-Nov-14 19:30N 38°53' W 009°47'1 1.1
2017-Nov-14 19:00N 38°53' W 009°48'0 0.6
2017-Nov-14 18:26N 38°53' W 009°48'0 0.9
2017-Nov-14 17:53N 38°54' W 009°48'3 6.5
2017-Nov-14 17:28N 38°52' W 009°51'1 1.7
2017-Nov-14 17:00N 38°53' W 009°50'1 1.0
2017-Nov-14 16:28N 38°53' W 009°50'0 0.4
2017-Nov-14 15:55N 38°53' W 009°50'0 0.9
2017-Nov-14 15:27N 38°53' W 009°50'4 8.0
2017-Nov-14 15:01N 38°50' W 009°49'0 0.3
2017-Nov-14 14:31N 38°50' W 009°50'6 0.6
2017-Nov-14 04:10N 38°56' W 009°49'1 5.8
2017-Nov-14 03:59N 38°57' W 009°49'4 7.6
2017-Nov-14 03:30N 39°00' W 009°47'4 7.8
2017-Nov-14 02:59N 39°03' W 009°43'4 7.7
2017-Nov-14 02:30N 39°06' W 009°40'4 8.1
2017-Nov-14 02:01N 39°09' W 009°36'5 8.1
2017-Nov-14 01:23N 39°12' W 009°32'  

Dump ship's entire track history